sensor_id;sensor_type;location;lat;lon;timestamp;P1;durP1;ratioP1;P2;durP2;ratioP2
22737;SDS011;11536;50.860;4.286;2023-07-31T00:00:28;10.77;;;1.90;;
22737;SDS011;11536;50.860;4.286;2023-07-31T00:02:54;7.68;;;2.00;;
22737;SDS011;11536;50.860;4.286;2023-07-31T00:05:19;9.88;;;1.98;;
22737;SDS011;11536;50.860;4.286;2023-07-31T00:07:45;12.85;;;2.28;;
22737;SDS011;11536;50.860;4.286;2023-07-31T00:10:11;8.80;;;2.08;;
22737;SDS011;11536;50.860;4.286;2023-07-31T00:12:37;10.68;;;2.30;;
22737;SDS011;11536;50.860;4.286;2023-07-31T00:15:04;9.38;;;2.42;;
22737;SDS011;11536;50.860;4.286;2023-07-31T00:17:31;9.68;;;2.10;;
22737;SDS011;11536;50.860;4.286;2023-07-31T00:19:57;9.43;;;2.53;;
22737;SDS011;11536;50.860;4.286;2023-07-31T00:22:22;12.30;;;2.72;;
22737;SDS011;11536;50.860;4.286;2023-07-31T00:24:49;11.23;;;2.55;;
22737;SDS011;11536;50.860;4.286;2023-07-31T00:27:15;9.75;;;2.40;;
22737;SDS011;11536;50.860;4.286;2023-07-31T00:29:40;9.38;;;2.45;;
22737;SDS011;11536;50.860;4.286;2023-07-31T00:32:06;9.93;;;2.28;;
22737;SDS011;11536;50.860;4.286;2023-07-31T00:34:32;9.43;;;2.75;;
22737;SDS011;11536;50.860;4.286;2023-07-31T00:36:58;10.23;;;2.40;;
22737;SDS011;11536;50.860;4.286;2023-07-31T00:39:23;10.60;;;2.50;;
22737;SDS011;11536;50.860;4.286;2023-07-31T00:41:49;10.52;;;2.53;;
22737;SDS011;11536;50.860;4.286;2023-07-31T00:44:15;7.07;;;2.00;;
22737;SDS011;11536;50.860;4.286;2023-07-31T00:46:40;9.57;;;1.92;;
22737;SDS011;11536;50.860;4.286;2023-07-31T00:49:06;11.55;;;2.47;;
22737;SDS011;11536;50.860;4.286;2023-07-31T00:51:32;10.23;;;2.60;;
22737;SDS011;11536;50.860;4.286;2023-07-31T00:53:58;10.27;;;2.10;;
22737;SDS011;11536;50.860;4.286;2023-07-31T00:56:24;7.68;;;2.25;;
22737;SDS011;11536;50.860;4.286;2023-07-31T00:58:51;8.52;;;2.40;;
22737;SDS011;11536;50.860;4.286;2023-07-31T01:01:16;8.77;;;2.40;;
22737;SDS011;11536;50.860;4.286;2023-07-31T01:03:42;11.75;;;2.78;;
22737;SDS011;11536;50.860;4.286;2023-07-31T01:06:14;7.07;;;2.15;;
22737;SDS011;11536;50.860;4.286;2023-07-31T01:08:58;7.93;;;2.38;;
22737;SDS011;11536;50.860;4.286;2023-07-31T01:11:46;10.27;;;2.53;;
22737;SDS011;11536;50.860;4.286;2023-07-31T01:14:17;9.40;;;2.55;;
22737;SDS011;11536;50.860;4.286;2023-07-31T01:16:42;8.48;;;2.42;;
22737;SDS011;11536;50.860;4.286;2023-07-31T01:19:08;11.13;;;2.88;;
22737;SDS011;11536;50.860;4.286;2023-07-31T01:26:28;8.15;;;2.33;;
22737;SDS011;11536;50.860;4.286;2023-07-31T01:29:03;7.07;;;2.22;;
22737;SDS011;11536;50.860;4.286;2023-07-31T01:31:33;9.73;;;2.65;;
22737;SDS011;11536;50.860;4.286;2023-07-31T01:34:01;8.52;;;2.10;;
22737;SDS011;11536;50.860;4.286;2023-07-31T01:36:28;14.63;;;2.55;;
22737;SDS011;11536;50.860;4.286;2023-07-31T01:38:59;9.70;;;2.40;;
22737;SDS011;11536;50.860;4.286;2023-07-31T01:41:26;9.85;;;2.17;;
22737;SDS011;11536;50.860;4.286;2023-07-31T01:43:51;9.45;;;2.25;;
22737;SDS011;11536;50.860;4.286;2023-07-31T01:46:17;10.52;;;2.45;;
22737;SDS011;11536;50.860;4.286;2023-07-31T01:48:42;7.70;;;2.30;;
22737;SDS011;11536;50.860;4.286;2023-07-31T01:51:08;9.38;;;2.55;;
22737;SDS011;11536;50.860;4.286;2023-07-31T01:53:34;11.70;;;2.78;;
22737;SDS011;11536;50.860;4.286;2023-07-31T01:55:59;8.02;;;2.13;;
22737;SDS011;11536;50.860;4.286;2023-07-31T01:58:25;11.52;;;2.60;;
22737;SDS011;11536;50.860;4.286;2023-07-31T02:00:50;8.60;;;2.60;;
22737;SDS011;11536;50.860;4.286;2023-07-31T02:03:16;7.55;;;2.63;;
22737;SDS011;11536;50.860;4.286;2023-07-31T02:05:45;9.13;;;2.30;;
22737;SDS011;11536;50.860;4.286;2023-07-31T02:08:15;7.53;;;2.22;;
22737;SDS011;11536;50.860;4.286;2023-07-31T02:10:41;9.32;;;2.22;;
22737;SDS011;11536;50.860;4.286;2023-07-31T02:13:07;11.55;;;2.63;;
22737;SDS011;11536;50.860;4.286;2023-07-31T02:15:32;10.07;;;3.33;;
22737;SDS011;11536;50.860;4.286;2023-07-31T02:17:58;12.55;;;2.95;;
22737;SDS011;11536;50.860;4.286;2023-07-31T02:20:24;9.07;;;2.55;;
22737;SDS011;11536;50.860;4.286;2023-07-31T02:22:49;7.45;;;2.70;;
22737;SDS011;11536;50.860;4.286;2023-07-31T02:25:15;7.25;;;2.72;;
22737;SDS011;11536;50.860;4.286;2023-07-31T02:27:41;7.32;;;2.60;;
22737;SDS011;11536;50.860;4.286;2023-07-31T02:30:07;11.75;;;2.75;;
22737;SDS011;11536;50.860;4.286;2023-07-31T02:32:33;8.73;;;2.72;;
22737;SDS011;11536;50.860;4.286;2023-07-31T02:34:58;9.63;;;2.95;;
22737;SDS011;11536;50.860;4.286;2023-07-31T02:37:24;10.98;;;2.72;;
22737;SDS011;11536;50.860;4.286;2023-07-31T02:39:50;9.70;;;3.03;;
22737;SDS011;11536;50.860;4.286;2023-07-31T02:42:16;7.97;;;2.50;;
22737;SDS011;11536;50.860;4.286;2023-07-31T02:44:41;9.07;;;2.78;;
22737;SDS011;11536;50.860;4.286;2023-07-31T02:47:07;9.32;;;2.95;;
22737;SDS011;11536;50.860;4.286;2023-07-31T02:49:33;8.05;;;2.47;;
22737;SDS011;11536;50.860;4.286;2023-07-31T02:51:58;8.38;;;2.33;;
22737;SDS011;11536;50.860;4.286;2023-07-31T02:54:24;7.53;;;2.55;;
22737;SDS011;11536;50.860;4.286;2023-07-31T02:56:49;7.72;;;2.20;;
22737;SDS011;11536;50.860;4.286;2023-07-31T02:59:17;7.32;;;2.40;;
22737;SDS011;11536;50.860;4.286;2023-07-31T03:01:43;5.85;;;1.98;;
22737;SDS011;11536;50.860;4.286;2023-07-31T03:04:09;6.28;;;2.17;;
22737;SDS011;11536;50.860;4.286;2023-07-31T03:06:35;6.28;;;2.10;;
22737;SDS011;11536;50.860;4.286;2023-07-31T03:09:00;5.90;;;2.05;;
22737;SDS011;11536;50.860;4.286;2023-07-31T03:11:26;8.05;;;2.13;;
22737;SDS011;11536;50.860;4.286;2023-07-31T03:13:51;7.95;;;2.35;;
22737;SDS011;11536;50.860;4.286;2023-07-31T03:16:20;6.53;;;1.70;;
22737;SDS011;11536;50.860;4.286;2023-07-31T03:18:45;6.40;;;1.95;;
22737;SDS011;11536;50.860;4.286;2023-07-31T03:21:11;4.95;;;1.80;;
22737;SDS011;11536;50.860;4.286;2023-07-31T03:23:37;6.22;;;2.10;;
22737;SDS011;11536;50.860;4.286;2023-07-31T03:26:05;9.52;;;2.15;;
22737;SDS011;11536;50.860;4.286;2023-07-31T03:28:32;6.75;;;2.00;;
22737;SDS011;11536;50.860;4.286;2023-07-31T03:30:57;6.38;;;2.10;;
22737;SDS011;11536;50.860;4.286;2023-07-31T03:33:23;5.22;;;1.98;;
22737;SDS011;11536;50.860;4.286;2023-07-31T03:35:49;5.45;;;1.92;;
22737;SDS011;11536;50.860;4.286;2023-07-31T03:38:14;6.55;;;2.33;;
22737;SDS011;11536;50.860;4.286;2023-07-31T03:40:40;6.93;;;2.67;;
22737;SDS011;11536;50.860;4.286;2023-07-31T03:43:05;6.45;;;2.20;;
22737;SDS011;11536;50.860;4.286;2023-07-31T03:45:31;5.63;;;2.28;;
22737;SDS011;11536;50.860;4.286;2023-07-31T03:47:57;6.88;;;2.45;;
22737;SDS011;11536;50.860;4.286;2023-07-31T03:50:23;9.85;;;2.38;;
22737;SDS011;11536;50.860;4.286;2023-07-31T03:52:50;6.13;;;2.05;;
22737;SDS011;11536;50.860;4.286;2023-07-31T03:55:15;6.07;;;2.20;;
22737;SDS011;11536;50.860;4.286;2023-07-31T03:57:41;6.82;;;2.03;;
22737;SDS011;11536;50.860;4.286;2023-07-31T04:00:07;8.20;;;2.13;;
22737;SDS011;11536;50.860;4.286;2023-07-31T04:02:33;7.78;;;2.17;;
22737;SDS011;11536;50.860;4.286;2023-07-31T04:04:58;8.00;;;1.98;;
22737;SDS011;11536;50.860;4.286;2023-07-31T04:07:24;7.25;;;2.28;;
22737;SDS011;11536;50.860;4.286;2023-07-31T04:09:49;5.20;;;1.90;;
22737;SDS011;11536;50.860;4.286;2023-07-31T04:12:15;5.93;;;1.90;;
22737;SDS011;11536;50.860;4.286;2023-07-31T04:14:40;5.43;;;2.13;;
22737;SDS011;11536;50.860;4.286;2023-07-31T04:17:06;9.40;;;2.28;;
22737;SDS011;11536;50.860;4.286;2023-07-31T04:19:31;6.45;;;1.90;;
22737;SDS011;11536;50.860;4.286;2023-07-31T04:21:57;7.18;;;2.20;;
22737;SDS011;11536;50.860;4.286;2023-07-31T04:24:23;10.63;;;2.85;;
22737;SDS011;11536;50.860;4.286;2023-07-31T04:26:51;6.30;;;2.03;;
22737;SDS011;11536;50.860;4.286;2023-07-31T04:29:18;8.48;;;4.28;;
22737;SDS011;11536;50.860;4.286;2023-07-31T04:31:43;7.13;;;2.25;;
22737;SDS011;11536;50.860;4.286;2023-07-31T04:34:09;6.80;;;2.55;;
22737;SDS011;11536;50.860;4.286;2023-07-31T04:36:34;7.25;;;2.15;;
22737;SDS011;11536;50.860;4.286;2023-07-31T04:39:00;6.55;;;1.73;;
22737;SDS011;11536;50.860;4.286;2023-07-31T04:41:26;5.38;;;1.83;;
22737;SDS011;11536;50.860;4.286;2023-07-31T04:43:53;6.35;;;2.30;;
22737;SDS011;11536;50.860;4.286;2023-07-31T04:46:18;4.85;;;1.77;;
22737;SDS011;11536;50.860;4.286;2023-07-31T04:48:44;8.57;;;2.10;;
22737;SDS011;11536;50.860;4.286;2023-07-31T04:51:09;6.93;;;2.30;;
22737;SDS011;11536;50.860;4.286;2023-07-31T04:53:35;5.80;;;1.88;;
22737;SDS011;11536;50.860;4.286;2023-07-31T04:56:01;6.85;;;2.10;;
22737;SDS011;11536;50.860;4.286;2023-07-31T04:58:27;6.20;;;2.00;;
22737;SDS011;11536;50.860;4.286;2023-07-31T05:00:52;5.50;;;1.85;;
22737;SDS011;11536;50.860;4.286;2023-07-31T05:03:18;5.78;;;2.20;;
22737;SDS011;11536;50.860;4.286;2023-07-31T05:05:43;7.20;;;2.38;;
22737;SDS011;11536;50.860;4.286;2023-07-31T05:08:09;5.32;;;2.15;;
22737;SDS011;11536;50.860;4.286;2023-07-31T05:10:35;5.60;;;2.05;;
22737;SDS011;11536;50.860;4.286;2023-07-31T05:13:00;7.82;;;2.40;;
22737;SDS011;11536;50.860;4.286;2023-07-31T05:15:26;7.18;;;2.20;;
22737;SDS011;11536;50.860;4.286;2023-07-31T05:17:59;6.60;;;1.67;;
22737;SDS011;11536;50.860;4.286;2023-07-31T05:20:24;7.10;;;2.30;;
22737;SDS011;11536;50.860;4.286;2023-07-31T05:22:50;7.80;;;2.45;;
22737;SDS011;11536;50.860;4.286;2023-07-31T05:25:16;8.88;;;2.38;;
22737;SDS011;11536;50.860;4.286;2023-07-31T05:27:42;5.10;;;1.90;;
22737;SDS011;11536;50.860;4.286;2023-07-31T05:30:07;6.25;;;2.25;;
22737;SDS011;11536;50.860;4.286;2023-07-31T05:32:33;7.30;;;1.95;;
22737;SDS011;11536;50.860;4.286;2023-07-31T05:34:59;5.65;;;2.15;;
22737;SDS011;11536;50.860;4.286;2023-07-31T05:37:25;6.75;;;1.92;;
22737;SDS011;11536;50.860;4.286;2023-07-31T05:39:50;5.55;;;2.00;;
22737;SDS011;11536;50.860;4.286;2023-07-31T05:42:17;6.32;;;1.88;;
22737;SDS011;11536;50.860;4.286;2023-07-31T05:44:42;5.93;;;1.88;;
22737;SDS011;11536;50.860;4.286;2023-07-31T05:47:08;6.78;;;1.67;;
22737;SDS011;11536;50.860;4.286;2023-07-31T05:49:34;5.78;;;1.75;;
22737;SDS011;11536;50.860;4.286;2023-07-31T05:52:00;6.80;;;1.85;;
22737;SDS011;11536;50.860;4.286;2023-07-31T05:54:25;6.00;;;1.80;;
22737;SDS011;11536;50.860;4.286;2023-07-31T05:56:51;6.40;;;2.05;;
22737;SDS011;11536;50.860;4.286;2023-07-31T05:59:17;5.45;;;1.83;;
22737;SDS011;11536;50.860;4.286;2023-07-31T06:01:42;6.85;;;1.58;;
22737;SDS011;11536;50.860;4.286;2023-07-31T06:04:08;7.30;;;1.80;;
22737;SDS011;11536;50.860;4.286;2023-07-31T06:06:34;7.18;;;2.03;;
22737;SDS011;11536;50.860;4.286;2023-07-31T06:08:59;5.45;;;1.90;;
22737;SDS011;11536;50.860;4.286;2023-07-31T06:11:25;4.85;;;1.67;;
22737;SDS011;11536;50.860;4.286;2023-07-31T06:13:51;6.18;;;1.83;;
22737;SDS011;11536;50.860;4.286;2023-07-31T06:16:16;7.32;;;2.40;;
22737;SDS011;11536;50.860;4.286;2023-07-31T06:18:42;5.95;;;1.85;;
22737;SDS011;11536;50.860;4.286;2023-07-31T06:21:08;7.55;;;2.03;;
22737;SDS011;11536;50.860;4.286;2023-07-31T06:23:35;6.35;;;1.92;;
22737;SDS011;11536;50.860;4.286;2023-07-31T06:26:00;6.28;;;2.03;;
22737;SDS011;11536;50.860;4.286;2023-07-31T06:28:30;6.07;;;2.03;;
22737;SDS011;11536;50.860;4.286;2023-07-31T06:30:56;8.65;;;2.25;;
22737;SDS011;11536;50.860;4.286;2023-07-31T06:33:23;6.80;;;1.83;;
22737;SDS011;11536;50.860;4.286;2023-07-31T06:35:48;4.93;;;1.90;;
22737;SDS011;11536;50.860;4.286;2023-07-31T06:38:14;7.57;;;1.88;;
22737;SDS011;11536;50.860;4.286;2023-07-31T06:40:40;4.75;;;1.90;;
22737;SDS011;11536;50.860;4.286;2023-07-31T06:43:06;5.82;;;1.90;;
22737;SDS011;11536;50.860;4.286;2023-07-31T06:45:33;6.28;;;1.95;;
22737;SDS011;11536;50.860;4.286;2023-07-31T06:48:00;7.32;;;2.17;;
22737;SDS011;11536;50.860;4.286;2023-07-31T06:50:27;5.45;;;1.95;;
22737;SDS011;11536;50.860;4.286;2023-07-31T06:52:56;7.22;;;1.73;;
22737;SDS011;11536;50.860;4.286;2023-07-31T06:55:22;6.00;;;1.77;;
22737;SDS011;11536;50.860;4.286;2023-07-31T06:57:48;10.10;;;1.75;;
22737;SDS011;11536;50.860;4.286;2023-07-31T07:00:16;7.38;;;1.88;;
22737;SDS011;11536;50.860;4.286;2023-07-31T07:02:42;5.97;;;1.77;;
22737;SDS011;11536;50.860;4.286;2023-07-31T07:05:08;6.28;;;1.45;;
22737;SDS011;11536;50.860;4.286;2023-07-31T07:07:34;5.35;;;1.90;;
22737;SDS011;11536;50.860;4.286;2023-07-31T07:09:59;5.03;;;1.83;;
22737;SDS011;11536;50.860;4.286;2023-07-31T07:12:26;7.07;;;1.85;;
22737;SDS011;11536;50.860;4.286;2023-07-31T07:14:54;7.25;;;2.10;;
22737;SDS011;11536;50.860;4.286;2023-07-31T07:17:20;6.90;;;1.95;;
22737;SDS011;11536;50.860;4.286;2023-07-31T07:19:47;5.95;;;1.58;;
22737;SDS011;11536;50.860;4.286;2023-07-31T07:22:13;7.38;;;1.58;;
22737;SDS011;11536;50.860;4.286;2023-07-31T07:24:39;5.80;;;1.80;;
22737;SDS011;11536;50.860;4.286;2023-07-31T07:27:05;6.13;;;1.77;;
22737;SDS011;11536;50.860;4.286;2023-07-31T07:29:31;6.03;;;1.75;;
22737;SDS011;11536;50.860;4.286;2023-07-31T07:31:56;7.03;;;2.10;;
22737;SDS011;11536;50.860;4.286;2023-07-31T07:34:22;4.55;;;1.50;;
22737;SDS011;11536;50.860;4.286;2023-07-31T07:36:50;7.68;;;1.88;;
22737;SDS011;11536;50.860;4.286;2023-07-31T07:39:15;5.93;;;2.03;;
22737;SDS011;11536;50.860;4.286;2023-07-31T07:41:41;8.82;;;1.67;;
22737;SDS011;11536;50.860;4.286;2023-07-31T07:44:07;6.60;;;1.60;;
22737;SDS011;11536;50.860;4.286;2023-07-31T07:46:33;6.78;;;1.60;;
22737;SDS011;11536;50.860;4.286;2023-07-31T07:48:58;5.20;;;1.73;;
22737;SDS011;11536;50.860;4.286;2023-07-31T07:51:24;7.35;;;2.17;;
22737;SDS011;11536;50.860;4.286;2023-07-31T07:53:49;6.57;;;1.60;;
22737;SDS011;11536;50.860;4.286;2023-07-31T07:56:15;7.10;;;1.90;;
22737;SDS011;11536;50.860;4.286;2023-07-31T07:58:41;6.57;;;1.70;;
22737;SDS011;11536;50.860;4.286;2023-07-31T08:01:07;6.13;;;1.70;;
22737;SDS011;11536;50.860;4.286;2023-07-31T08:03:32;9.48;;;1.95;;
22737;SDS011;11536;50.860;4.286;2023-07-31T08:05:58;6.15;;;1.40;;
22737;SDS011;11536;50.860;4.286;2023-07-31T08:08:25;5.10;;;1.50;;
22737;SDS011;11536;50.860;4.286;2023-07-31T08:10:50;5.50;;;1.70;;
22737;SDS011;11536;50.860;4.286;2023-07-31T08:13:16;5.63;;;1.73;;
22737;SDS011;11536;50.860;4.286;2023-07-31T08:15:41;5.20;;;1.38;;
22737;SDS011;11536;50.860;4.286;2023-07-31T08:18:10;6.18;;;1.60;;
22737;SDS011;11536;50.860;4.286;2023-07-31T08:20:36;4.82;;;1.58;;
22737;SDS011;11536;50.860;4.286;2023-07-31T08:23:03;6.47;;;2.05;;
22737;SDS011;11536;50.860;4.286;2023-07-31T08:25:29;5.25;;;1.73;;
22737;SDS011;11536;50.860;4.286;2023-07-31T08:27:55;8.02;;;1.73;;
22737;SDS011;11536;50.860;4.286;2023-07-31T08:30:20;5.03;;;1.55;;
22737;SDS011;11536;50.860;4.286;2023-07-31T08:32:46;7.68;;;1.50;;
22737;SDS011;11536;50.860;4.286;2023-07-31T08:35:12;4.38;;;1.40;;
22737;SDS011;11536;50.860;4.286;2023-07-31T08:37:38;5.07;;;1.65;;
22737;SDS011;11536;50.860;4.286;2023-07-31T08:40:04;4.40;;;1.48;;
22737;SDS011;11536;50.860;4.286;2023-07-31T08:42:30;6.13;;;1.73;;
22737;SDS011;11536;50.860;4.286;2023-07-31T08:44:57;8.40;;;1.90;;
22737;SDS011;11536;50.860;4.286;2023-07-31T08:47:25;6.93;;;1.70;;
22737;SDS011;11536;50.860;4.286;2023-07-31T08:49:51;6.72;;;1.77;;
22737;SDS011;11536;50.860;4.286;2023-07-31T08:52:18;6.93;;;2.00;;
22737;SDS011;11536;50.860;4.286;2023-07-31T08:54:44;7.88;;;2.17;;
22737;SDS011;11536;50.860;4.286;2023-07-31T08:57:09;6.00;;;1.73;;
22737;SDS011;11536;50.860;4.286;2023-07-31T08:59:36;4.65;;;1.52;;
22737;SDS011;11536;50.860;4.286;2023-07-31T09:02:07;6.75;;;2.13;;
22737;SDS011;11536;50.860;4.286;2023-07-31T09:04:34;6.88;;;2.10;;
22737;SDS011;11536;50.860;4.286;2023-07-31T09:07:00;7.90;;;2.35;;
22737;SDS011;11536;50.860;4.286;2023-07-31T09:09:31;8.48;;;2.28;;
22737;SDS011;11536;50.860;4.286;2023-07-31T09:11:57;6.30;;;2.08;;
22737;SDS011;11536;50.860;4.286;2023-07-31T09:14:24;4.60;;;1.67;;
22737;SDS011;11536;50.860;4.286;2023-07-31T09:16:51;6.03;;;1.80;;
22737;SDS011;11536;50.860;4.286;2023-07-31T09:19:35;8.77;;;1.73;;
22737;SDS011;11536;50.860;4.286;2023-07-31T09:24:31;9.75;;;2.28;;
22737;SDS011;11536;50.860;4.286;2023-07-31T09:27:01;6.20;;;1.58;;
22737;SDS011;11536;50.860;4.286;2023-07-31T09:29:28;6.63;;;2.30;;
22737;SDS011;11536;50.860;4.286;2023-07-31T09:31:54;5.68;;;1.67;;
22737;SDS011;11536;50.860;4.286;2023-07-31T09:34:20;6.72;;;1.73;;
22737;SDS011;11536;50.860;4.286;2023-07-31T09:37:03;6.55;;;1.90;;
22737;SDS011;11536;50.860;4.286;2023-07-31T09:39:30;6.25;;;2.25;;
22737;SDS011;11536;50.860;4.286;2023-07-31T09:41:56;7.35;;;2.45;;
22737;SDS011;11536;50.860;4.286;2023-07-31T09:44:36;6.15;;;2.20;;
22737;SDS011;11536;50.860;4.286;2023-07-31T09:47:04;6.80;;;2.15;;
22737;SDS011;11536;50.860;4.286;2023-07-31T09:49:30;6.68;;;2.13;;
22737;SDS011;11536;50.860;4.286;2023-07-31T09:51:56;5.35;;;2.00;;
22737;SDS011;11536;50.860;4.286;2023-07-31T09:54:21;7.88;;;2.40;;
22737;SDS011;11536;50.860;4.286;2023-07-31T09:56:47;7.45;;;2.13;;
22737;SDS011;11536;50.860;4.286;2023-07-31T09:59:14;6.32;;;2.15;;
22737;SDS011;11536;50.860;4.286;2023-07-31T10:01:42;6.93;;;2.38;;
22737;SDS011;11536;50.860;4.286;2023-07-31T10:04:09;7.85;;;2.28;;
22737;SDS011;11536;50.860;4.286;2023-07-31T10:06:36;6.35;;;2.20;;
22737;SDS011;11536;50.860;4.286;2023-07-31T10:09:05;6.97;;;2.40;;
22737;SDS011;11536;50.860;4.286;2023-07-31T10:11:33;6.85;;;2.70;;
22737;SDS011;11536;50.860;4.286;2023-07-31T10:14:16;6.63;;;2.33;;
22737;SDS011;11536;50.860;4.286;2023-07-31T10:16:45;7.50;;;2.75;;
22737;SDS011;11536;50.860;4.286;2023-07-31T10:19:11;8.02;;;2.40;;
22737;SDS011;11536;50.860;4.286;2023-07-31T10:21:37;8.60;;;2.67;;
22737;SDS011;11536;50.860;4.286;2023-07-31T10:24:20;8.98;;;2.60;;
22737;SDS011;11536;50.860;4.286;2023-07-31T10:26:50;8.57;;;2.55;;
22737;SDS011;11536;50.860;4.286;2023-07-31T10:29:18;10.60;;;2.15;;
22737;SDS011;11536;50.860;4.286;2023-07-31T10:31:45;10.93;;;3.10;;
22737;SDS011;11536;50.860;4.286;2023-07-31T10:34:11;7.85;;;2.83;;
22737;SDS011;11536;50.860;4.286;2023-07-31T10:36:38;9.18;;;3.00;;
22737;SDS011;11536;50.860;4.286;2023-07-31T10:39:03;7.45;;;2.80;;
22737;SDS011;11536;50.860;4.286;2023-07-31T10:41:49;8.57;;;3.00;;
22737;SDS011;11536;50.860;4.286;2023-07-31T10:44:16;9.88;;;3.10;;
22737;SDS011;11536;50.860;4.286;2023-07-31T10:46:42;9.65;;;2.53;;
22737;SDS011;11536;50.860;4.286;2023-07-31T10:49:10;7.57;;;2.65;;
22737;SDS011;11536;50.860;4.286;2023-07-31T10:51:46;8.10;;;3.05;;
22737;SDS011;11536;50.860;4.286;2023-07-31T10:54:13;7.47;;;2.80;;
22737;SDS011;11536;50.860;4.286;2023-07-31T10:56:40;8.45;;;2.67;;
22737;SDS011;11536;50.860;4.286;2023-07-31T10:59:11;11.35;;;3.42;;
22737;SDS011;11536;50.860;4.286;2023-07-31T11:01:53;8.05;;;3.08;;
22737;SDS011;11536;50.860;4.286;2023-07-31T11:04:25;6.93;;;2.38;;
22737;SDS011;11536;50.860;4.286;2023-07-31T11:06:55;12.13;;;2.65;;
22737;SDS011;11536;50.860;4.286;2023-07-31T11:09:22;6.60;;;2.45;;
22737;SDS011;11536;50.860;4.286;2023-07-31T11:11:50;11.30;;;2.70;;
22737;SDS011;11536;50.860;4.286;2023-07-31T11:14:17;6.95;;;2.45;;
22737;SDS011;11536;50.860;4.286;2023-07-31T11:16:42;7.45;;;2.53;;
22737;SDS011;11536;50.860;4.286;2023-07-31T11:19:08;9.90;;;2.60;;
22737;SDS011;11536;50.860;4.286;2023-07-31T11:21:34;8.52;;;2.65;;
22737;SDS011;11536;50.860;4.286;2023-07-31T11:23:59;8.75;;;2.80;;
22737;SDS011;11536;50.860;4.286;2023-07-31T11:26:25;8.23;;;2.40;;
22737;SDS011;11536;50.860;4.286;2023-07-31T11:28:51;7.47;;;2.38;;
22737;SDS011;11536;50.860;4.286;2023-07-31T11:31:17;8.95;;;2.80;;
22737;SDS011;11536;50.860;4.286;2023-07-31T11:33:43;8.18;;;2.67;;
22737;SDS011;11536;50.860;4.286;2023-07-31T11:36:19;6.82;;;2.40;;
22737;SDS011;11536;50.860;4.286;2023-07-31T11:38:45;6.40;;;2.28;;
22737;SDS011;11536;50.860;4.286;2023-07-31T11:41:13;7.38;;;2.40;;
22737;SDS011;11536;50.860;4.286;2023-07-31T11:43:39;8.73;;;2.50;;
22737;SDS011;11536;50.860;4.286;2023-07-31T11:46:05;9.35;;;2.78;;
22737;SDS011;11536;50.860;4.286;2023-07-31T11:48:36;8.77;;;2.47;;
22737;SDS011;11536;50.860;4.286;2023-07-31T11:51:06;11.95;;;3.25;;
22737;SDS011;11536;50.860;4.286;2023-07-31T11:53:44;7.28;;;2.50;;
22737;SDS011;11536;50.860;4.286;2023-07-31T11:56:13;11.35;;;2.90;;
22737;SDS011;11536;50.860;4.286;2023-07-31T11:58:41;10.65;;;3.08;;
22737;SDS011;11536;50.860;4.286;2023-07-31T12:01:11;7.82;;;2.35;;
22737;SDS011;11536;50.860;4.286;2023-07-31T12:03:37;7.45;;;2.55;;
22737;SDS011;11536;50.860;4.286;2023-07-31T12:06:03;8.18;;;2.58;;
22737;SDS011;11536;50.860;4.286;2023-07-31T12:08:28;8.30;;;2.50;;
22737;SDS011;11536;50.860;4.286;2023-07-31T12:10:54;8.00;;;2.10;;
22737;SDS011;11536;50.860;4.286;2023-07-31T12:13:30;7.68;;;2.88;;
22737;SDS011;11536;50.860;4.286;2023-07-31T12:15:57;8.60;;;2.70;;
22737;SDS011;11536;50.860;4.286;2023-07-31T12:18:26;8.65;;;2.97;;
22737;SDS011;11536;50.860;4.286;2023-07-31T12:20:56;9.20;;;3.00;;
22737;SDS011;11536;50.860;4.286;2023-07-31T12:23:27;8.05;;;2.70;;
22737;SDS011;11536;50.860;4.286;2023-07-31T12:26:33;8.32;;;2.70;;
22737;SDS011;11536;50.860;4.286;2023-07-31T12:28:46;6.72;;;2.38;;
22737;SDS011;11536;50.860;4.286;2023-07-31T12:31:15;6.55;;;2.35;;
22737;SDS011;11536;50.860;4.286;2023-07-31T12:33:45;7.47;;;2.58;;
22737;SDS011;11536;50.860;4.286;2023-07-31T12:36:14;8.85;;;2.67;;
22737;SDS011;11536;50.860;4.286;2023-07-31T12:38:41;8.32;;;2.78;;
22737;SDS011;11536;50.860;4.286;2023-07-31T12:41:07;8.85;;;2.75;;
22737;SDS011;11536;50.860;4.286;2023-07-31T12:43:41;9.13;;;2.78;;
22737;SDS011;11536;50.860;4.286;2023-07-31T12:46:07;7.18;;;2.83;;
22737;SDS011;11536;50.860;4.286;2023-07-31T12:48:33;9.35;;;2.92;;
22737;SDS011;11536;50.860;4.286;2023-07-31T12:51:00;8.52;;;2.72;;
22737;SDS011;11536;50.860;4.286;2023-07-31T12:53:26;7.70;;;2.40;;
22737;SDS011;11536;50.860;4.286;2023-07-31T12:55:52;8.68;;;2.90;;
22737;SDS011;11536;50.860;4.286;2023-07-31T12:58:17;8.05;;;2.78;;
22737;SDS011;11536;50.860;4.286;2023-07-31T13:00:43;6.00;;;2.45;;
22737;SDS011;11536;50.860;4.286;2023-07-31T13:03:08;6.75;;;2.60;;
22737;SDS011;11536;50.860;4.286;2023-07-31T13:05:34;7.85;;;2.33;;
22737;SDS011;11536;50.860;4.286;2023-07-31T13:08:00;6.63;;;2.20;;
22737;SDS011;11536;50.860;4.286;2023-07-31T13:10:26;8.20;;;2.53;;
22737;SDS011;11536;50.860;4.286;2023-07-31T13:12:53;6.93;;;2.33;;
22737;SDS011;11536;50.860;4.286;2023-07-31T13:15:19;8.10;;;2.35;;
22737;SDS011;11536;50.860;4.286;2023-07-31T13:17:45;5.55;;;1.73;;
22737;SDS011;11536;50.860;4.286;2023-07-31T13:20:11;5.13;;;1.70;;
22737;SDS011;11536;50.860;4.286;2023-07-31T13:22:37;8.00;;;1.95;;
22737;SDS011;11536;50.860;4.286;2023-07-31T13:25:02;6.15;;;1.45;;
22737;SDS011;11536;50.860;4.286;2023-07-31T13:27:28;6.55;;;1.58;;
22737;SDS011;11536;50.860;4.286;2023-07-31T13:29:54;6.45;;;1.50;;
22737;SDS011;11536;50.860;4.286;2023-07-31T13:32:20;5.55;;;1.40;;
22737;SDS011;11536;50.860;4.286;2023-07-31T13:34:47;4.93;;;1.45;;
22737;SDS011;11536;50.860;4.286;2023-07-31T13:37:13;6.20;;;1.63;;
22737;SDS011;11536;50.860;4.286;2023-07-31T13:39:39;4.65;;;1.65;;
22737;SDS011;11536;50.860;4.286;2023-07-31T13:42:05;4.40;;;1.30;;
22737;SDS011;11536;50.860;4.286;2023-07-31T13:44:33;6.63;;;1.63;;
22737;SDS011;11536;50.860;4.286;2023-07-31T13:47:02;6.50;;;1.30;;
22737;SDS011;11536;50.860;4.286;2023-07-31T13:49:28;4.82;;;1.45;;
22737;SDS011;11536;50.860;4.286;2023-07-31T13:51:55;6.28;;;1.67;;
22737;SDS011;11536;50.860;4.286;2023-07-31T13:54:22;6.80;;;1.92;;
22737;SDS011;11536;50.860;4.286;2023-07-31T13:56:47;6.25;;;2.10;;
22737;SDS011;11536;50.860;4.286;2023-07-31T13:59:13;4.95;;;1.58;;
22737;SDS011;11536;50.860;4.286;2023-07-31T14:01:41;4.90;;;1.70;;
22737;SDS011;11536;50.860;4.286;2023-07-31T14:04:07;5.70;;;1.98;;
22737;SDS011;11536;50.860;4.286;2023-07-31T14:06:32;4.82;;;1.60;;
22737;SDS011;11536;50.860;4.286;2023-07-31T14:08:58;4.22;;;1.50;;
22737;SDS011;11536;50.860;4.286;2023-07-31T14:11:27;4.65;;;1.67;;
22737;SDS011;11536;50.860;4.286;2023-07-31T14:13:55;7.28;;;1.70;;
22737;SDS011;11536;50.860;4.286;2023-07-31T14:16:21;6.70;;;2.00;;
22737;SDS011;11536;50.860;4.286;2023-07-31T14:18:47;4.25;;;1.38;;
22737;SDS011;11536;50.860;4.286;2023-07-31T14:21:12;5.15;;;1.80;;
22737;SDS011;11536;50.860;4.286;2023-07-31T14:23:41;5.22;;;1.30;;
22737;SDS011;11536;50.860;4.286;2023-07-31T14:26:07;5.07;;;1.70;;
22737;SDS011;11536;50.860;4.286;2023-07-31T14:28:33;6.47;;;2.10;;
22737;SDS011;11536;50.860;4.286;2023-07-31T14:30:58;5.78;;;1.55;;
22737;SDS011;11536;50.860;4.286;2023-07-31T14:33:24;4.30;;;1.60;;
22737;SDS011;11536;50.860;4.286;2023-07-31T14:35:50;4.50;;;1.50;;
22737;SDS011;11536;50.860;4.286;2023-07-31T14:38:15;4.00;;;1.63;;
22737;SDS011;11536;50.860;4.286;2023-07-31T14:40:41;3.95;;;1.50;;
22737;SDS011;11536;50.860;4.286;2023-07-31T14:43:07;3.65;;;1.10;;
22737;SDS011;11536;50.860;4.286;2023-07-31T14:45:32;4.20;;;1.48;;
22737;SDS011;11536;50.860;4.286;2023-07-31T14:47:58;3.40;;;1.42;;
22737;SDS011;11536;50.860;4.286;2023-07-31T14:50:24;3.00;;;1.10;;